Time;durP1;ratioP1;P1;durP2;ratioP2;P2;SDS_P1;SDS_P2;PMS_P1;PMS_P2;Temp;Humidity;BMP_temperature;BMP_pressure;BME280_temperature;BME280_humidity;BME280_pressure;Samples;Min_cycle;Max_cycle;Signal;HPM_P1;HPM_P2
2021/08/02 00:00:50;;;;;;;15.48;12.77;;;16.70;88.10;;;;;;5023165;28;20038;-75
2021/08/02 00:03:47;;;;;;;15.43;12.43;;;16.70;88.10;;;;;;5028278;28;20294;-76
2021/08/02 00:06:20;;;;;;;16.10;13.57;;;16.70;88.20;;;;;;5013002;28;20038;-76
2021/08/02 00:09:06;;;;;;;17.27;14.40;;;16.70;88.10;;;;;;5008388;28;20029;-79
2021/08/02 00:11:38;;;;;;;17.33;13.93;;;16.70;88.10;;;;;;5022782;28;20037;-75
2021/08/02 00:14:06;;;;;;;19.63;15.10;;;16.60;88.20;;;;;;5004912;28;20042;-74
2021/08/02 00:16:35;;;;;;;16.30;13.88;;;16.60;88.10;;;;;;5006905;28;20421;-75
2021/08/02 00:19:00;;;;;;;15.88;13.15;;;16.50;88.00;;;;;;5014011;28;20034;-75
2021/08/02 00:21:26;;;;;;;18.20;14.60;;;16.50;88.20;;;;;;5004718;28;20036;-75
2021/08/02 00:23:52;;;;;;;15.90;13.80;;;16.40;88.10;;;;;;5016858;28;20034;-74
2021/08/02 00:26:19;;;;;;;17.52;12.95;;;16.30;87.80;;;;;;5001327;28;20522;-75
2021/08/02 00:28:45;;;;;;;13.02;10.18;;;16.30;87.70;;;;;;5001455;28;20113;-74
2021/08/02 00:31:12;;;;;;;15.75;11.75;;;16.20;87.30;;;;;;5014036;28;20507;-74
2021/08/02 00:33:38;;;;;;;16.15;12.25;;;16.20;87.00;;;;;;5017655;28;20037;-75
2021/08/02 00:36:06;;;;;;;16.27;12.65;;;16.10;86.90;;;;;;5016706;28;20487;-75
2021/08/02 00:38:38;;;;;;;17.73;12.63;;;16.10;87.20;;;;;;5027064;28;20029;-80
2021/08/02 00:41:27;;;;;;;16.17;9.13;;;16.00;87.30;;;;;;5028936;28;20038;-74
2021/08/02 00:44:20;;;;;;;11.45;8.07;;;16.00;87.20;;;;;;5028163;28;20080;-74
2021/08/02 00:46:51;;;;;;;12.13;7.05;;;15.80;87.30;;;;;;5031229;28;20033;-81
2021/08/02 00:49:24;;;;;;;10.85;7.35;;;15.70;87.50;;;;;;5033055;28;20387;-74
2021/08/02 00:51:54;;;;;;;9.35;6.43;;;15.60;87.50;;;;;;5028396;28;20042;-74
2021/08/02 00:54:22;;;;;;;10.73;7.00;;;15.60;87.40;;;;;;5032716;28;20069;-74
2021/08/02 00:56:54;;;;;;;10.35;6.32;;;15.50;87.70;;;;;;5028308;28;20116;-82
2021/08/02 00:59:20;;;;;;;12.00;6.25;;;15.50;88.10;;;;;;5029530;28;20026;-74
2021/08/02 01:01:46;;;;;;;12.23;6.05;;;15.50;87.90;;;;;;5027477;28;20050;-74
2021/08/02 01:04:13;;;;;;;13.70;6.60;;;15.50;88.00;;;;;;5038060;28;20041;-75
2021/08/02 01:06:40;;;;;;;11.40;6.60;;;15.40;88.00;;;;;;5033840;28;20038;-74
2021/08/02 01:09:06;;;;;;;14.68;7.65;;;15.40;88.20;;;;;;5035693;28;20040;-74
2021/08/02 01:11:36;;;;;;;12.18;6.50;;;15.30;88.50;;;;;;5030349;28;20033;-75
2021/08/02 01:14:04;;;;;;;10.82;7.05;;;15.30;88.50;;;;;;5039880;28;20049;-75
2021/08/02 01:16:32;;;;;;;11.50;6.82;;;15.30;88.50;;;;;;5023609;28;20030;-75
2021/08/02 01:18:59;;;;;;;12.52;6.80;;;15.20;88.50;;;;;;5028185;28;20033;-74
2021/08/02 01:21:26;;;;;;;11.85;6.97;;;15.30;88.90;;;;;;5021362;28;20068;-77
2021/08/02 01:23:52;;;;;;;11.05;7.15;;;15.20;88.80;;;;;;5030875;28;20111;-75
2021/08/02 01:26:43;;;;;;;10.75;6.32;;;15.20;89.00;;;;;;5027181;28;20462;-74
2021/08/02 01:29:46;;;;;;;11.63;6.50;;;15.30;88.90;;;;;;5026228;28;20396;-75
2021/08/02 01:32:16;;;;;;;13.20;7.07;;;15.20;88.90;;;;;;5029213;28;20064;-74
2021/08/02 01:34:42;;;;;;;12.27;7.35;;;15.20;88.80;;;;;;5028690;28;20026;-74
2021/08/02 01:37:09;;;;;;;13.55;7.75;;;15.30;88.90;;;;;;5025215;28;20249;-74
2021/08/02 01:39:35;;;;;;;13.20;7.25;;;15.20;88.70;;;;;;5029873;28;20037;-80
2021/08/02 01:42:02;;;;;;;10.77;6.97;;;15.10;88.80;;;;;;5026040;28;20416;-77
2021/08/02 01:44:28;;;;;;;12.30;7.38;;;15.10;88.80;;;;;;5022947;28;20025;-74
2021/08/02 01:47:09;;;;;;;12.88;8.18;;;15.10;88.90;;;;;;5030598;28;20483;-74
2021/08/02 01:49:39;;;;;;;12.32;8.70;;;15.00;89.10;;;;;;5023907;28;20460;-80
2021/08/02 01:52:11;;;;;;;15.18;8.80;;;14.90;89.60;;;;;;5031273;28;20041;-76
2021/08/02 01:54:55;;;;;;;12.40;8.75;;;14.90;89.60;;;;;;5041228;28;20026;-74
2021/08/02 01:57:29;;;;;;;16.00;8.80;;;14.90;89.80;;;;;;5026229;28;20079;-74
2021/08/02 02:00:15;;;;;;;17.38;9.07;;;15.00;89.90;;;;;;5030822;28;20033;-73
2021/08/02 02:02:45;;;;;;;12.75;8.30;;;15.00;89.80;;;;;;5024951;28;20113;-75
2021/08/02 02:05:18;;;;;;;15.07;9.25;;;15.00;89.90;;;;;;5033574;28;20125;-74
2021/08/02 02:07:57;;;;;;;15.48;8.73;;;15.00;89.80;;;;;;5030798;28;20025;-74
2021/08/02 02:10:26;;;;;;;14.27;8.60;;;15.00;89.80;;;;;;5029873;28;20120;-73
2021/08/02 02:12:53;;;;;;;13.27;9.35;;;15.00;89.70;;;;;;5029970;28;20041;-76
2021/08/02 02:15:19;;;;;;;14.98;9.40;;;14.90;89.80;;;;;;5028750;28;20117;-74
2021/08/02 02:17:46;;;;;;;16.67;9.68;;;14.90;90.10;;;;;;5032921;28;20448;-75
2021/08/02 02:20:14;;;;;;;14.38;9.48;;;14.80;90.20;;;;;;5028649;28;20047;-73
2021/08/02 02:22:41;;;;;;;16.55;9.73;;;14.90;90.40;;;;;;5042980;28;20041;-75
2021/08/02 02:25:09;;;;;;;14.60;9.73;;;14.90;90.60;;;;;;5024445;28;20049;-75
2021/08/02 02:27:37;;;;;;;16.13;10.18;;;14.80;90.70;;;;;;5025490;28;20401;-74
2021/08/02 02:30:05;;;;;;;13.88;10.18;;;14.80;90.70;;;;;;5027667;28;20537;-75
2021/08/02 02:32:32;;;;;;;16.27;9.90;;;14.90;90.80;;;;;;5023348;28;20160;-77
2021/08/02 02:35:00;;;;;;;14.98;10.02;;;14.90;90.70;;;;;;5031300;28;20499;-75
2021/08/02 02:37:27;;;;;;;14.77;10.02;;;14.90;90.70;;;;;;5033329;28;20057;-74
2021/08/02 02:39:53;;;;;;;16.33;9.90;;;14.80;90.80;;;;;;5029889;28;20025;-77
2021/08/02 02:42:20;;;;;;;16.50;9.30;;;14.80;90.70;;;;;;5032545;28;20356;-80
2021/08/02 02:44:47;;;;;;;14.30;10.00;;;14.80;90.70;;;;;;5009246;28;20105;-78
2021/08/02 02:47:12;;;;;;;16.08;9.30;;;14.80;90.80;;;;;;5024695;28;20084;-80
2021/08/02 02:49:40;;;;;;;16.13;9.15;;;14.80;90.90;;;;;;5013316;28;20330;-77
2021/08/02 02:52:07;;;;;;;14.80;9.32;;;14.90;90.80;;;;;;5018023;28;20048;-73
2021/08/02 02:54:33;;;;;;;14.00;8.07;;;14.90;90.80;;;;;;5012384;28;20030;-79
2021/08/02 02:57:00;;;;;;;17.90;9.43;;;14.90;90.50;;;;;;5000332;28;20254;-74
2021/08/02 02:59:26;;;;;;;14.10;9.00;;;14.90;90.40;;;;;;4999831;28;20481;-73
2021/08/02 03:01:54;;;;;;;16.27;9.55;;;15.00;90.50;;;;;;4999190;28;20045;-75
2021/08/02 03:04:22;;;;;;;17.45;9.35;;;15.00;90.30;;;;;;5006135;28;20037;-74
2021/08/02 03:06:49;;;;;;;15.98;9.85;;;15.00;90.20;;;;;;5021994;28;20029;-74
2021/08/02 03:09:18;;;;;;;14.52;9.13;;;15.00;90.10;;;;;;5003359;28;20682;-74
2021/08/02 03:11:48;;;;;;;13.98;8.63;;;15.00;90.00;;;;;;5015743;28;20528;-76
2021/08/02 03:14:15;;;;;;;14.43;8.60;;;15.00;89.90;;;;;;5014030;28;20026;-74
2021/08/02 03:16:41;;;;;;;15.38;8.75;;;15.10;90.10;;;;;;5008067;28;20026;-74
2021/08/02 03:19:07;;;;;;;14.45;9.35;;;15.00;90.10;;;;;;5005406;28;20415;-74
2021/08/02 03:21:33;;;;;;;14.45;8.73;;;15.10;90.00;;;;;;5002276;28;20211;-74
2021/08/02 03:24:30;;;;;;;14.80;9.07;;;15.10;90.10;;;;;;5004618;28;20046;-74
2021/08/02 03:27:04;;;;;;;16.88;9.65;;;15.10;89.80;;;;;;5025580;28;20025;-74
2021/08/02 03:29:35;;;;;;;15.33;9.43;;;15.00;89.80;;;;;;5026016;28;20134;-74
2021/08/02 03:32:09;;;;;;;13.43;9.00;;;15.00;89.90;;;;;;5025902;28;20633;-74
2021/08/02 03:34:35;;;;;;;14.63;9.18;;;15.00;89.90;;;;;;5019636;28;20037;-77
2021/08/02 03:37:05;;;;;;;13.57;8.65;;;14.90;90.00;;;;;;5017730;28;20036;-75
2021/08/02 03:39:32;;;;;;;18.95;9.00;;;15.00;90.00;;;;;;5029147;28;20104;-74
2021/08/02 03:41:59;;;;;;;12.65;8.45;;;15.00;89.90;;;;;;5021979;28;20030;-74
2021/08/02 03:44:26;;;;;;;13.38;8.63;;;14.90;89.80;;;;;;5020299;28;20075;-76
2021/08/02 03:46:53;;;;;;;14.98;8.55;;;14.90;89.60;;;;;;5027138;28;20033;-74
2021/08/02 03:49:19;;;;;;;14.23;8.82;;;14.90;89.90;;;;;;5032759;28;20026;-77
2021/08/02 03:51:53;;;;;;;17.27;10.27;;;14.90;89.80;;;;;;5011003;28;20046;-78
2021/08/02 03:54:19;;;;;;;15.70;8.85;;;14.90;89.70;;;;;;5011929;28;20048;-74
2021/08/02 03:56:45;;;;;;;16.20;8.65;;;14.90;89.80;;;;;;5017901;28;20034;-74
2021/08/02 03:59:11;;;;;;;19.20;9.00;;;14.80;89.60;;;;;;5004309;28;20030;-74
2021/08/02 04:01:39;;;;;;;14.07;8.27;;;14.80;89.60;;;;;;5001209;28;20479;-74
2021/08/02 04:04:05;;;;;;;15.02;8.98;;;14.80;89.80;;;;;;5009515;28;20083;-75
2021/08/02 04:06:31;;;;;;;14.55;8.73;;;14.80;89.80;;;;;;5003167;28;20034;-74
2021/08/02 04:08:57;;;;;;;12.73;8.60;;;14.80;89.80;;;;;;5011613;28;20029;-75
2021/08/02 04:11:23;;;;;;;14.02;8.27;;;14.80;90.00;;;;;;5005318;28;20045;-77
2021/08/02 04:13:48;;;;;;;17.17;8.52;;;14.80;90.00;;;;;;5004971;28;20402;-75
2021/08/02 04:16:14;;;;;;;14.32;8.75;;;14.90;90.10;;;;;;5001534;28;20107;-79
2021/08/02 04:18:40;;;;;;;11.65;8.52;;;14.90;89.80;;;;;;5008791;28;20373;-75
2021/08/02 04:21:05;;;;;;;19.40;8.60;;;14.90;89.80;;;;;;4997912;28;20176;-78
2021/08/02 04:23:31;;;;;;;15.77;8.82;;;14.90;89.70;;;;;;5001418;28;20053;-76
2021/08/02 04:25:57;;;;;;;14.85;7.90;;;14.90;89.60;;;;;;4999406;28;20045;-83
2021/08/02 04:28:22;;;;;;;13.77;8.88;;;14.90;89.50;;;;;;5007366;28;20038;-75
2021/08/02 04:30:48;;;;;;;15.10;8.48;;;14.90;89.30;;;;;;5004337;28;20121;-74
2021/08/02 04:33:14;;;;;;;14.02;8.35;;;15.00;89.30;;;;;;5004221;28;20605;-74
2021/08/02 04:35:41;;;;;;;14.32;7.68;;;15.00;89.40;;;;;;5003637;28;20490;-74
2021/08/02 04:38:07;;;;;;;13.40;8.15;;;15.00;89.50;;;;;;5003971;28;20037;-76
2021/08/02 04:40:32;;;;;;;16.30;8.63;;;15.10;89.40;;;;;;5000635;28;20030;-79
2021/08/02 04:42:58;;;;;;;13.93;7.80;;;15.00;89.30;;;;;;5002351;28;20048;-75
2021/08/02 04:45:24;;;;;;;14.70;8.13;;;14.90;89.10;;;;;;5001613;28;20080;-74
2021/08/02 04:47:50;;;;;;;13.75;8.25;;;14.90;89.30;;;;;;4998548;28;20127;-74
2021/08/02 04:50:17;;;;;;;13.45;8.20;;;14.90;89.40;;;;;;4995030;28;20079;-74
2021/08/02 04:52:43;;;;;;;13.68;7.72;;;14.90;89.20;;;;;;5024982;28;20034;-84
2021/08/02 04:55:10;;;;;;;11.45;7.47;;;14.90;89.20;;;;;;5014178;28;20038;-75
2021/08/02 04:57:36;;;;;;;13.80;7.93;;;14.90;89.30;;;;;;5022072;28;20033;-74
2021/08/02 05:00:03;;;;;;;14.98;7.80;;;14.90;89.20;;;;;;5023291;28;20036;-75
2021/08/02 05:02:29;;;;;;;13.40;8.40;;;14.80;89.30;;;;;;5023675;28;20079;-81
2021/08/02 05:04:55;;;;;;;13.70;8.40;;;14.90;89.30;;;;;;5023268;28;20397;-74
2021/08/02 05:07:21;;;;;;;14.18;8.98;;;14.90;89.20;;;;;;5024379;28;20045;-74
2021/08/02 05:09:46;;;;;;;13.63;8.57;;;14.90;89.30;;;;;;5021618;28;20432;-74
2021/08/02 05:12:12;;;;;;;14.55;8.55;;;15.00;89.30;;;;;;5025014;28;20037;-78
2021/08/02 05:14:38;;;;;;;14.65;8.13;;;14.90;89.30;;;;;;5021189;28;20058;-74
2021/08/02 05:17:04;;;;;;;14.35;8.30;;;15.00;89.40;;;;;;5021492;28;20724;-76
2021/08/02 05:19:30;;;;;;;14.43;8.02;;;15.10;89.20;;;;;;5020240;28;20034;-78
2021/08/02 05:21:55;;;;;;;12.98;7.63;;;15.10;89.00;;;;;;5021282;28;20038;-74
2021/08/02 05:24:21;;;;;;;12.73;8.50;;;15.00;88.60;;;;;;5018961;28;20049;-75
2021/08/02 05:26:47;;;;;;;16.23;8.60;;;14.90;88.80;;;;;;5024889;28;20032;-74
2021/08/02 05:29:12;;;;;;;14.48;8.40;;;15.00;89.00;;;;;;5024471;28;20120;-78
2021/08/02 05:31:38;;;;;;;16.83;8.88;;;15.00;89.10;;;;;;5022700;28;20042;-74
2021/08/02 05:34:04;;;;;;;13.57;7.78;;;14.90;88.90;;;;;;5025742;28;20108;-74
2021/08/02 05:36:29;;;;;;;14.23;8.70;;;15.00;89.00;;;;;;5021700;28;20030;-75
2021/08/02 05:38:55;;;;;;;14.00;7.97;;;15.00;88.80;;;;;;5021291;28;20029;-78
2021/08/02 05:41:21;;;;;;;13.50;8.48;;;15.00;89.10;;;;;;5020755;28;20037;-75
2021/08/02 05:43:46;;;;;;;12.25;7.93;;;14.90;88.70;;;;;;5030152;28;20033;-79
2021/08/02 05:46:12;;;;;;;14.38;8.15;;;15.00;88.80;;;;;;5022560;28;20033;-74
2021/08/02 05:48:38;;;;;;;15.93;8.23;;;15.10;89.00;;;;;;5029797;28;20041;-75
2021/08/02 05:51:04;;;;;;;12.25;8.27;;;15.10;88.80;;;;;;5028655;28;20040;-73
2021/08/02 05:53:29;;;;;;;14.30;8.68;;;15.10;88.70;;;;;;5034237;28;20103;-72
2021/08/02 05:55:55;;;;;;;13.07;7.47;;;15.20;88.70;;;;;;5035240;28;20514;-73
2021/08/02 05:58:21;;;;;;;12.45;8.35;;;15.20;88.60;;;;;;5027819;28;20370;-73
2021/08/02 06:00:46;;;;;;;14.88;8.73;;;15.30;88.50;;;;;;5030405;28;20032;-72
2021/08/02 06:03:12;;;;;;;15.85;9.15;;;15.30;88.50;;;;;;5014899;28;20037;-73
2021/08/02 06:05:38;;;;;;;13.63;9.18;;;15.40;88.50;;;;;;5026885;28;20053;-70
2021/08/02 06:08:03;;;;;;;13.68;8.65;;;15.50;88.60;;;;;;5025365;28;20401;-71
2021/08/02 06:10:29;;;;;;;14.40;8.70;;;15.50;88.40;;;;;;5025284;28;20049;-70
2021/08/02 06:12:55;;;;;;;14.63;8.55;;;15.60;88.10;;;;;;5029347;28;20049;-70
2021/08/02 06:15:20;;;;;;;13.50;8.82;;;15.60;88.00;;;;;;5032457;28;20044;-75
2021/08/02 06:17:46;;;;;;;15.55;8.90;;;15.70;88.00;;;;;;5016740;28;21256;-70
2021/08/02 06:20:13;;;;;;;13.25;8.32;;;15.80;87.90;;;;;;5020693;28;20033;-70
2021/08/02 06:22:39;;;;;;;15.00;9.57;;;15.90;88.00;;;;;;5028641;28;20037;-71
2021/08/02 06:25:06;;;;;;;13.77;8.63;;;15.80;86.90;;;;;;5024773;28;20752;-76
2021/08/02 06:27:32;;;;;;;11.35;7.70;;;15.90;87.40;;;;;;5019380;28;20041;-70
2021/08/02 06:29:59;;;;;;;11.88;7.32;;;16.00;87.40;;;;;;5022035;28;20060;-70
2021/08/02 06:32:26;;;;;;;11.70;8.10;;;16.10;87.30;;;;;;5022623;28;20045;-71
2021/08/02 06:34:52;;;;;;;16.00;8.68;;;16.10;86.90;;;;;;5028990;28;20125;-71
2021/08/02 06:37:18;;;;;;;12.02;8.60;;;16.10;86.10;;;;;;5026281;28;20065;-72
2021/08/02 06:39:44;;;;;;;14.77;9.07;;;16.10;86.50;;;;;;5019398;28;20055;-79
2021/08/02 06:42:10;;;;;;;13.07;8.93;;;16.10;85.90;;;;;;5014649;28;20091;-75
2021/08/02 06:44:36;;;;;;;11.95;8.55;;;16.20;86.30;;;;;;5022092;28;20033;-74
2021/08/02 06:47:02;;;;;;;13.38;8.88;;;16.30;86.80;;;;;;5024215;28;20396;-72
2021/08/02 06:49:28;;;;;;;14.00;9.13;;;16.20;85.80;;;;;;5022469;28;20026;-73
2021/08/02 06:51:53;;;;;;;13.38;9.20;;;16.30;86.50;;;;;;5020933;28;20107;-77
2021/08/02 06:54:19;;;;;;;13.93;9.57;;;16.40;86.50;;;;;;5020604;28;20030;-70
2021/08/02 06:56:45;;;;;;;12.32;8.30;;;16.50;85.80;;;;;;5021961;28;20160;-72
2021/08/02 06:59:10;;;;;;;13.43;8.75;;;16.60;85.60;;;;;;5021149;28;20026;-70
2021/08/02 07:01:36;;;;;;;16.00;9.38;;;16.60;84.60;;;;;;5022848;28;20041;-73
2021/08/02 07:04:02;;;;;;;11.32;8.45;;;16.70;84.80;;;;;;5012952;28;20037;-71
2021/08/02 07:06:28;;;;;;;12.93;8.05;;;16.70;84.30;;;;;;5017944;28;20068;-73
2021/08/02 07:08:57;;;;;;;11.65;8.25;;;16.80;83.40;;;;;;5020747;28;20037;-70
2021/08/02 07:11:23;;;;;;;13.52;8.38;;;16.90;83.20;;;;;;5018516;28;20421;-70
2021/08/02 07:13:48;;;;;;;14.23;8.55;;;16.90;83.10;;;;;;5020228;28;20479;-72
2021/08/02 07:16:14;;;;;;;11.32;7.75;;;17.10;82.80;;;;;;5016219;28;20477;-71
2021/08/02 07:18:40;;;;;;;12.30;7.93;;;17.10;81.80;;;;;;5021113;28;20416;-78
2021/08/02 07:21:05;;;;;;;12.35;7.38;;;17.20;82.30;;;;;;5013401;28;20033;-71
2021/08/02 07:23:31;;;;;;;11.20;7.50;;;17.30;82.00;;;;;;5018007;28;20075;-72
2021/08/02 07:25:57;;;;;;;11.32;7.80;;;17.40;80.90;;;;;;5023063;28;20045;-71
2021/08/02 07:28:23;;;;;;;13.65;8.55;;;17.40;80.10;;;;;;5020297;28;20036;-72
2021/08/02 07:30:48;;;;;;;12.98;7.47;;;17.30;80.00;;;;;;5024847;28;20069;-76
2021/08/02 07:33:14;;;;;;;12.82;8.57;;;17.10;81.50;;;;;;5021856;28;20045;-70
2021/08/02 07:35:40;;;;;;;13.50;8.32;;;17.30;81.20;;;;;;5009677;28;20030;-72
2021/08/02 07:38:05;;;;;;;11.48;7.70;;;17.30;80.80;;;;;;5018162;28;20052;-70
2021/08/02 07:40:31;;;;;;;15.02;8.18;;;17.50;81.30;;;;;;5016254;28;20026;-71
2021/08/02 07:42:57;;;;;;;10.90;8.23;;;17.60;80.80;;;;;;5013913;28;20042;-73
2021/08/02 07:45:22;;;;;;;12.45;7.82;;;17.60;80.90;;;;;;5020031;28;20133;-71
2021/08/02 07:47:48;;;;;;;13.07;8.95;;;17.70;80.60;;;;;;5028476;28;20053;-70
2021/08/02 07:50:15;;;;;;;13.30;7.97;;;17.70;80.70;;;;;;5026356;28;20037;-73
2021/08/02 07:52:43;;;;;;;12.95;8.07;;;17.90;80.90;;;;;;5031632;28;20045;-70
2021/08/02 07:55:10;;;;;;;14.73;8.15;;;18.10;79.70;;;;;;5018616;28;20033;-70
2021/08/02 07:57:36;;;;;;;10.90;7.60;;;18.40;77.60;;;;;;5027786;28;20544;-70
2021/08/02 08:00:07;;;;;;;13.75;7.80;;;18.40;77.10;;;;;;5023067;28;20420;-70
2021/08/02 08:02:33;;;;;;;11.45;7.32;;;18.40;75.90;;;;;;5030004;28;20033;-74
2021/08/02 08:04:59;;;;;;;10.30;6.88;;;18.50;77.40;;;;;;5026885;28;20353;-70
2021/08/02 08:07:25;;;;;;;10.82;7.20;;;18.50;76.70;;;;;;5019630;28;20041;-70
2021/08/02 08:09:51;;;;;;;10.75;6.60;;;18.50;75.30;;;;;;5030499;28;20045;-71
2021/08/02 08:12:16;;;;;;;11.38;7.20;;;18.60;75.20;;;;;;5022586;28;20037;-70
2021/08/02 08:14:42;;;;;;;9.98;5.97;;;18.60;74.90;;;;;;5022809;28;20087;-70
2021/08/02 08:17:08;;;;;;;12.05;7.15;;;18.80;73.60;;;;;;5029858;28;20041;-70
2021/08/02 08:19:33;;;;;;;10.45;6.80;;;19.20;73.10;;;;;;5027776;28;20038;-70
2021/08/02 08:21:59;;;;;;;11.73;6.25;;;19.30;71.40;;;;;;5014870;28;20564;-69
2021/08/02 08:24:25;;;;;;;9.07;6.05;;;19.60;72.20;;;;;;5031123;28;20057;-70
2021/08/02 08:26:51;;;;;;;9.05;6.00;;;19.60;69.90;;;;;;5022484;28;20052;-70
2021/08/02 08:29:17;;;;;;;9.95;5.93;;;19.70;70.60;;;;;;5021078;28;20447;-70
2021/08/02 08:31:43;;;;;;;10.38;5.75;;;19.60;68.40;;;;;;5021319;28;20054;-71
2021/08/02 08:34:08;;;;;;;10.95;5.63;;;19.40;69.80;;;;;;5029318;28;20140;-72
2021/08/02 08:36:34;;;;;;;11.38;5.75;;;19.50;69.20;;;;;;5023246;28;20447;-70
2021/08/02 08:39:00;;;;;;;12.05;5.55;;;19.40;68.40;;;;;;5022774;28;20048;-72
2021/08/02 08:41:26;;;;;;;10.88;5.10;;;19.50;69.40;;;;;;5027320;28;20049;-72
2021/08/02 08:43:52;;;;;;;9.25;4.70;;;19.60;70.00;;;;;;5026401;28;20033;-73
2021/08/02 08:46:19;;;;;;;12.10;5.30;;;19.70;69.80;;;;;;5017983;28;21151;-69
2021/08/02 08:48:46;;;;;;;13.32;5.22;;;19.60;67.70;;;;;;5028715;28;20045;-78
2021/08/02 08:51:13;;;;;;;8.23;4.80;;;20.00;67.60;;;;;;5026558;28;20039;-71
2021/08/02 08:53:43;;;;;;;8.43;4.53;;;20.20;67.60;;;;;;5020089;28;20092;-72
2021/08/02 08:56:16;;;;;;;8.18;4.10;;;20.50;66.10;;;;;;5004413;28;20034;-70
2021/08/02 08:58:43;;;;;;;8.93;3.97;;;20.60;67.00;;;;;;5036514;28;20140;-74
2021/08/02 09:01:08;;;;;;;9.35;4.55;;;20.70;65.90;;;;;;4997781;28;20041;-76
2021/08/02 09:03:34;;;;;;;9.32;4.20;;;20.40;65.20;;;;;;5001692;28;20042;-71
2021/08/02 09:06:04;;;;;;;8.65;4.55;;;20.00;64.80;;;;;;5000174;28;20065;-70
2021/08/02 09:08:30;;;;;;;9.82;3.40;;;19.80;66.00;;;;;;4997745;28;20027;-73
2021/08/02 09:11:00;;;;;;;7.63;2.90;;;19.90;67.00;;;;;;5001730;28;20140;-71
2021/08/02 09:13:36;;;;;;;5.05;2.90;;;20.00;66.40;;;;;;5025244;28;20033;-70
2021/08/02 09:16:15;;;;;;;9.13;3.10;;;20.00;66.10;;;;;;5022153;28;20065;-71
2021/08/02 09:18:56;;;;;;;7.75;2.63;;;20.40;63.90;;;;;;5019331;28;20351;-71
2021/08/02 09:21:22;;;;;;;7.28;2.72;;;20.80;61.50;;;;;;4999463;28;20050;-74
2021/08/02 09:23:52;;;;;;;6.60;2.65;;;20.70;60.70;;;;;;5022604;28;20042;-71
2021/08/02 09:26:33;;;;;;;9.07;2.88;;;20.80;59.90;;;;;;5012992;28;20136;-69
2021/08/02 09:28:59;;;;;;;8.02;2.63;;;20.90;58.70;;;;;;5015181;28;20029;-71
2021/08/02 09:31:39;;;;;;;7.13;2.90;;;21.50;59.60;;;;;;5010543;28;20102;-71
2021/08/02 09:34:09;;;;;;;6.55;2.28;;;21.70;58.80;;;;;;5010741;28;20540;-70
2021/08/02 09:36:39;;;;;;;6.30;2.63;;;21.30;56.60;;;;;;5012850;28;20041;-74
2021/08/02 09:39:07;;;;;;;8.63;2.97;;;21.30;56.60;;;;;;5011038;28;20173;-75
2021/08/02 09:41:33;;;;;;;6.95;3.08;;;20.80;57.60;;;;;;5015639;28;20038;-74
2021/08/02 09:43:59;;;;;;;9.20;3.03;;;20.60;59.80;;;;;;5015472;28;20229;-71
2021/08/02 09:46:24;;;;;;;7.10;3.10;;;21.00;57.70;;;;;;5012214;28;20536;-70
2021/08/02 09:48:50;;;;;;;7.47;2.92;;;21.00;56.90;;;;;;5011805;28;20045;-70
2021/08/02 09:51:18;;;;;;;6.03;2.67;;;20.90;57.50;;;;;;5009478;28;20125;-75
2021/08/02 09:53:45;;;;;;;4.90;2.50;;;21.00;57.80;;;;;;5014520;28;20045;-71
2021/08/02 09:56:19;;;;;;;6.35;2.80;;;21.00;58.00;;;;;;5013571;28;20057;-70
2021/08/02 09:58:46;;;;;;;8.75;3.40;;;20.80;57.30;;;;;;5010807;28;20382;-71
2021/08/02 10:01:16;;;;;;;6.47;3.03;;;20.90;58.50;;;;;;5021598;28;20109;-73
2021/08/02 10:03:42;;;;;;;7.35;3.00;;;21.00;57.20;;;;;;5019378;28;20109;-73
2021/08/02 10:06:10;;;;;;;6.45;2.83;;;20.80;58.00;;;;;;5012990;28;20204;-70
2021/08/02 10:08:36;;;;;;;5.78;3.42;;;20.80;59.50;;;;;;5016704;28;20047;-71
2021/08/02 10:11:03;;;;;;;11.00;3.20;;;21.10;59.20;;;;;;5008948;28;20037;-72
2021/08/02 10:13:33;;;;;;;8.25;3.10;;;21.60;59.80;;;;;;4998799;28;20059;-70
2021/08/02 10:16:03;;;;;;;8.20;2.88;;;22.00;57.50;;;;;;5003343;28;20381;-71
2021/08/02 10:18:30;;;;;;;10.25;3.35;;;22.30;54.20;;;;;;5019389;28;20034;-70
2021/08/02 10:21:12;;;;;;;7.03;3.60;;;22.20;55.50;;;;;;5017613;28;20037;-70
2021/08/02 10:23:39;;;;;;;6.85;2.78;;;22.30;54.60;;;;;;5018991;28;20096;-69
2021/08/02 10:26:28;;;;;;;7.07;3.00;;;22.30;55.80;;;;;;5024705;28;20084;-71
2021/08/02 10:28:59;;;;;;;6.70;3.00;;;22.60;53.80;;;;;;5020205;28;20867;-70
2021/08/02 10:31:27;;;;;;;8.30;2.90;;;22.50;53.90;;;;;;5018505;28;20033;-69
2021/08/02 10:33:54;;;;;;;8.23;2.83;;;21.90;54.20;;;;;;5023552;28;20029;-70
2021/08/02 10:36:21;;;;;;;5.25;2.50;;;21.80;54.20;;;;;;5023371;28;20033;-71
2021/08/02 10:38:52;;;;;;;4.53;2.28;;;21.60;54.50;;;;;;5024717;28;20039;-72
2021/08/02 10:41:29;;;;;;;8.90;3.28;;;21.50;56.20;;;;;;5028851;28;20029;-73
2021/08/02 10:43:55;;;;;;;7.82;2.90;;;21.50;56.50;;;;;;5035027;28;20036;-72
2021/08/02 10:46:23;;;;;;;8.93;3.15;;;21.60;55.20;;;;;;5023360;28;20042;-71
2021/08/02 10:48:52;;;;;;;5.75;3.20;;;21.70;57.40;;;;;;5035695;28;20442;-74
2021/08/02 10:51:20;;;;;;;8.23;2.85;;;21.70;56.50;;;;;;5025822;28;20039;-72
2021/08/02 10:54:00;;;;;;;6.90;3.30;;;21.60;55.00;;;;;;5029218;28;20044;-70
2021/08/02 10:56:31;;;;;;;7.65;3.25;;;21.50;56.50;;;;;;5016212;28;20041;-71
2021/08/02 10:58:59;;;;;;;8.13;3.35;;;21.50;59.10;;;;;;5020487;28;20063;-71
2021/08/02 11:01:29;;;;;;;7.72;3.15;;;21.20;56.90;;;;;;5021820;28;20085;-71
2021/08/02 11:03:56;;;;;;;8.90;3.33;;;21.10;55.60;;;;;;5008567;28;20040;-70
2021/08/02 11:06:23;;;;;;;5.25;2.80;;;21.10;57.70;;;;;;5009776;28;20536;-71
2021/08/02 11:08:54;;;;;;;7.95;3.10;;;21.20;60.40;;;;;;5004108;28;20113;-72
2021/08/02 11:11:19;;;;;;;6.57;3.17;;;21.30;59.40;;;;;;5019878;28;20029;-71
2021/08/02 11:13:46;;;;;;;7.25;3.13;;;21.20;56.10;;;;;;5025561;28;20061;-71
2021/08/02 11:16:12;;;;;;;8.43;3.47;;;21.30;58.50;;;;;;5023982;28;20061;-72
2021/08/02 11:18:42;;;;;;;8.45;3.08;;;21.40;56.90;;;;;;5026554;28;20554;-73
2021/08/02 11:21:18;;;;;;;8.07;3.30;;;21.20;57.90;;;;;;5023155;28;20045;-71
2021/08/02 11:23:44;;;;;;;7.95;3.50;;;21.30;59.30;;;;;;5032916;28;20042;-72
2021/08/02 11:26:12;;;;;;;10.43;3.45;;;21.70;59.70;;;;;;5024455;28;20049;-71
2021/08/02 11:28:46;;;;;;;7.60;3.20;;;21.70;56.30;;;;;;5017845;28;20428;-71
2021/08/02 11:31:13;;;;;;;8.35;3.13;;;21.60;56.60;;;;;;5028128;28;20033;-71
2021/08/02 11:33:41;;;;;;;7.15;3.35;;;22.20;56.30;;;;;;5027337;28;20554;-70
2021/08/02 11:36:15;;;;;;;7.57;3.50;;;22.70;53.20;;;;;;5029556;28;20400;-70
2021/08/02 11:38:41;;;;;;;7.38;2.83;;;22.90;52.10;;;;;;5030685;28;20489;-71
2021/08/02 11:41:07;;;;;;;8.45;3.97;;;23.30;52.20;;;;;;5028419;28;20037;-74
2021/08/02 11:43:43;;;;;;;8.68;3.90;;;23.80;51.50;;;;;;5030978;28;20108;-71
2021/08/02 11:46:11;;;;;;;6.22;3.53;;;23.70;51.00;;;;;;5026359;28;20025;-70
2021/08/02 11:48:44;;;;;;;7.15;3.63;;;23.40;51.30;;;;;;5030419;28;20040;-71
2021/08/02 11:51:13;;;;;;;7.95;3.78;;;22.90;52.30;;;;;;5023121;28;20067;-70
2021/08/02 11:53:39;;;;;;;8.15;3.10;;;22.70;53.20;;;;;;5017270;28;20477;-74
2021/08/02 11:56:05;;;;;;;7.45;3.20;;;22.40;52.90;;;;;;5018026;28;20068;-73
2021/08/02 11:58:39;;;;;;;10.48;4.00;;;22.10;54.40;;;;;;5024713;28;20029;-70
2021/08/02 12:01:05;;;;;;;7.60;3.95;;;21.90;55.40;;;;;;5023237;28;20034;-70
2021/08/02 12:03:31;;;;;;;8.27;3.88;;;21.70;56.20;;;;;;5022045;28;20048;-70
2021/08/02 12:06:08;;;;;;;8.63;3.92;;;21.60;54.80;;;;;;5024527;28;20103;-70
2021/08/02 12:08:36;;;;;;;9.05;3.58;;;21.40;55.70;;;;;;5022463;28;20033;-70
2021/08/02 12:11:05;;;;;;;8.85;3.38;;;21.60;56.90;;;;;;5018657;28;20046;-70
2021/08/02 12:13:46;;;;;;;8.75;3.42;;;21.80;56.60;;;;;;5021412;28;20045;-74
2021/08/02 12:16:24;;;;;;;9.13;2.95;;;22.40;56.00;;;;;;5017808;28;20440;-70
2021/08/02 12:18:50;;;;;;;8.65;3.67;;;23.10;53.80;;;;;;5012873;28;20041;-75
2021/08/02 12:21:22;;;;;;;6.18;3.40;;;23.50;50.70;;;;;;5022364;28;20030;-71
2021/08/02 12:23:49;;;;;;;6.97;3.35;;;24.00;50.00;;;;;;5021632;28;20128;-74
2021/08/02 12:26:21;;;;;;;6.72;2.85;;;24.10;48.00;;;;;;5021460;28;20120;-70
2021/08/02 12:28:48;;;;;;;5.90;2.40;;;23.80;46.10;;;;;;5014619;28;20057;-73
2021/08/02 12:31:16;;;;;;;5.43;2.55;;;23.60;48.00;;;;;;5012682;28;20029;-72
2021/08/02 12:33:44;;;;;;;6.28;2.70;;;23.40;51.60;;;;;;5009267;28;20046;-70
2021/08/02 12:36:09;;;;;;;5.07;2.60;;;23.10;51.00;;;;;;4999713;28;20481;-70
2021/08/02 12:38:41;;;;;;;7.93;3.20;;;22.70;50.50;;;;;;5000950;28;20121;-70
2021/08/02 12:41:08;;;;;;;7.05;2.90;;;22.60;53.00;;;;;;5002104;28;20436;-70
2021/08/02 12:43:33;;;;;;;5.80;2.72;;;22.80;50.90;;;;;;5006963;28;20088;-70